createdAt,value
2023-01-28T00:01:18.144Z,102180.63
2023-01-28T00:03:45.110Z,102188.19
2023-01-28T00:06:15.900Z,102181.63
2023-01-28T00:08:42.818Z,102183.53
2023-01-28T00:11:12.431Z,102185.44
2023-01-28T00:13:39.070Z,102195.47
2023-01-28T00:16:11.011Z,102191.13
2023-01-28T00:18:38.408Z,102200.59
2023-01-28T00:21:07.985Z,102193.91
2023-01-28T00:23:36.136Z,102194.13
2023-01-28T00:26:05.469Z,102193.13
2023-01-28T00:28:32.478Z,102183.44
2023-01-28T00:30:59.389Z,102179.06
2023-01-28T00:33:29.366Z,102178.84
2023-01-28T00:36:00.856Z,102188.53
2023-01-28T00:38:28.339Z,102183.84
2023-01-28T00:40:55.456Z,102191.56
2023-01-28T00:43:23.312Z,102196.13
2023-01-28T00:45:50.424Z,102201.38
2023-01-28T00:48:17.274Z,102197.56
2023-01-28T00:50:45.551Z,102196.03
2023-01-28T00:53:12.202Z,102198.81
2023-01-28T00:55:39.088Z,102188.31
2023-01-28T00:58:05.805Z,102194.47
2023-01-28T01:00:32.583Z,102190.00
2023-01-28T01:02:59.983Z,102193.81
2023-01-28T01:05:26.559Z,102199.13
2023-01-28T01:07:53.635Z,102208.97
2023-01-28T01:10:20.556Z,102194.94
2023-01-28T01:12:48.949Z,102197.13
2023-01-28T01:15:17.782Z,102192.91
2023-01-28T01:17:47.512Z,102194.56
2023-01-28T01:20:17.648Z,102190.88
2023-01-28T01:22:44.535Z,102191.66
2023-01-28T01:25:16.909Z,102187.97
2023-01-28T01:27:46.085Z,102190.66
2023-01-28T01:30:13.009Z,102187.31
2023-01-28T01:32:39.613Z,102190.66
2023-01-28T01:35:08.111Z,102195.13
2023-01-28T01:37:36.140Z,102208.06
2023-01-28T01:40:04.990Z,102201.38
2023-01-28T01:42:33.297Z,102198.09
2023-01-28T01:44:59.980Z,102191.28
2023-01-28T01:47:35.816Z,102195.47
2023-01-28T01:50:14.666Z,102199.47
2023-01-28T01:52:43.041Z,102196.69
2023-01-28T01:55:17.463Z,102201.38
2023-01-28T01:57:45.983Z,102204.38
2023-01-28T02:00:12.972Z,102201.25
2023-01-28T02:02:46.437Z,102207.16
2023-01-28T02:05:17.818Z,102205.84
2023-01-28T02:07:46.988Z,102204.06
2023-01-28T02:10:14.582Z,102206.94
2023-01-28T02:12:45.031Z,102212.84
2023-01-28T02:15:20.960Z,102213.72
2023-01-28T02:17:49.660Z,102217.53
2023-01-28T02:20:53.345Z,102212.97
2023-01-28T02:24:08.128Z,102216.13
2023-01-28T02:27:10.960Z,102215.09
2023-01-28T02:29:50.194Z,102220.56
2023-01-28T02:32:25.594Z,102219.44
2023-01-28T02:35:02.415Z,102217.78
2023-01-28T02:37:40.532Z,102216.66
2023-01-28T02:41:01.189Z,102211.88
2023-01-28T02:43:44.733Z,102215.66
2023-01-28T02:46:39.189Z,102218.56
2023-01-28T02:49:11.028Z,102209.63
2023-01-28T02:51:48.457Z,102221.91
2023-01-28T02:54:39.698Z,102217.19
2023-01-28T02:57:16.528Z,102215.41
2023-01-28T02:59:57.501Z,102215.53
2023-01-28T03:02:30.084Z,102211.19
2023-01-28T03:05:07.673Z,102208.31
2023-01-28T03:07:37.286Z,102201.16
2023-01-28T03:10:06.151Z,102209.63
2023-01-28T03:12:54.438Z,102198.94
2023-01-28T03:15:44.438Z,102203.59
2023-01-28T03:18:49.253Z,102195.34
2023-01-28T03:21:46.689Z,102189.09
2023-01-28T03:24:38.649Z,102197.81
2023-01-28T03:27:38.084Z,102194.22
2023-01-28T03:30:36.611Z,102194.47
2023-01-28T03:33:30.819Z,102198.69
2023-01-28T03:36:16.732Z,102198.47
2023-01-28T03:38:48.435Z,102200.38
2023-01-28T03:41:24.306Z,102208.72
2023-01-28T03:43:54.789Z,102207.50
2023-01-28T03:46:21.700Z,102200.25
2023-01-28T03:48:48.411Z,102210.09
2023-01-28T03:51:16.469Z,102210.50
2023-01-28T03:53:43.114Z,102209.31
2023-01-28T03:56:18.464Z,102212.97
2023-01-28T03:58:56.616Z,102212.19
2023-01-28T04:01:24.359Z,102206.16
2023-01-28T04:03:51.281Z,102213.94
2023-01-28T04:06:28.939Z,102210.84
2023-01-28T04:09:14.305Z,102201.38
2023-01-28T04:11:55.536Z,102210.50
2023-01-28T04:14:27.788Z,102221.91
2023-01-28T04:17:04.266Z,102215.22
2023-01-28T04:19:37.194Z,102220.41
2023-01-28T04:22:07.274Z,102226.03
2023-01-28T04:24:35.022Z,102226.09
2023-01-28T04:27:01.856Z,102230.25
2023-01-28T04:29:28.430Z,102225.34
2023-01-28T04:32:00.422Z,102227.19
2023-01-28T04:34:41.308Z,102227.13
2023-01-28T04:37:37.197Z,102235.00
2023-01-28T04:40:14.081Z,102239.44
2023-01-28T04:42:56.066Z,102236.78
2023-01-28T04:45:34.836Z,102233.44
2023-01-28T04:48:27.633Z,102231.88
2023-01-28T04:51:14.430Z,102231.00
2023-01-28T04:53:50.134Z,102226.22
2023-01-28T04:56:24.783Z,102232.00
2023-01-28T04:58:51.435Z,102239.25
2023-01-28T05:01:18.215Z,102237.69
2023-01-28T05:03:44.898Z,102233.59
2023-01-28T05:06:19.326Z,102231.81
2023-01-28T05:08:47.002Z,102229.09
2023-01-28T05:11:15.275Z,102225.34
2023-01-28T05:13:43.344Z,102224.69
2023-01-28T05:16:12.657Z,102224.22
2023-01-28T05:18:39.375Z,102216.50
2023-01-28T05:21:09.783Z,102223.44
2023-01-28T05:23:38.674Z,102212.44
2023-01-28T05:26:05.630Z,102225.44
2023-01-28T05:28:34.020Z,102233.47
2023-01-28T05:31:05.128Z,102242.81
2023-01-28T05:33:31.971Z,102237.25
2023-01-28T05:35:59.776Z,102241.66
2023-01-28T05:38:26.438Z,102242.75
2023-01-28T05:40:53.148Z,102245.72
2023-01-28T05:43:19.776Z,102245.22
2023-01-28T05:45:53.531Z,102248.59
2023-01-28T05:48:29.375Z,102242.00
2023-01-28T05:51:24.986Z,102240.13
2023-01-28T05:53:55.835Z,102245.19
2023-01-28T05:56:22.846Z,102245.50
2023-01-28T05:58:49.381Z,102242.25
2023-01-28T06:01:15.954Z,102247.13
2023-01-28T06:03:49.495Z,102239.09
2023-01-28T06:06:17.387Z,102241.38
2023-01-28T06:08:44.204Z,102234.13
2023-01-28T06:11:11.533Z,102227.00
2023-01-28T06:13:38.385Z,102235.25
2023-01-28T06:16:26.228Z,102236.50
2023-01-28T06:19:05.936Z,102235.25
2023-01-28T06:21:33.254Z,102240.16
2023-01-28T06:24:00.614Z,102240.03
2023-01-28T06:26:28.443Z,102243.59
2023-01-28T06:28:56.119Z,102244.38
2023-01-28T06:31:22.848Z,102244.38
2023-01-28T06:33:49.465Z,102244.16
2023-01-28T06:36:16.036Z,102237.22
2023-01-28T06:38:42.686Z,102242.06
2023-01-28T06:41:09.451Z,102237.16
2023-01-28T06:43:36.024Z,102251.19
2023-01-28T06:46:02.675Z,102242.13
2023-01-28T06:48:29.233Z,102239.69
2023-01-28T06:50:55.850Z,102246.81
2023-01-28T06:53:22.548Z,102246.16
2023-01-28T06:55:49.645Z,102238.94
2023-01-28T06:58:16.365Z,102227.53
2023-01-28T07:00:42.980Z,102228.31
2023-01-28T07:03:09.632Z,102242.06
2023-01-28T07:05:36.283Z,102238.34
2023-01-28T07:08:03.178Z,102251.44
2023-01-28T07:10:30.062Z,102249.06
2023-01-28T07:12:56.797Z,102256.00
2023-01-28T07:15:23.482Z,102258.41
2023-01-28T07:17:50.071Z,102256.16
2023-01-28T07:20:17.589Z,102242.31
2023-01-28T07:22:45.047Z,102246.34
2023-01-28T07:25:15.478Z,102258.16
2023-01-28T07:28:00.674Z,102255.91
2023-01-28T07:30:27.333Z,102247.94
2023-01-28T07:32:58.656Z,102255.97
2023-01-28T07:35:26.268Z,102267.09
2023-01-28T07:37:55.075Z,102254.28
2023-01-28T07:40:22.778Z,102259.81
2023-01-28T07:42:49.730Z,102265.81
2023-01-28T07:45:19.577Z,102269.16
2023-01-28T07:47:53.930Z,102258.03
2023-01-28T07:50:20.479Z,102257.66
2023-01-28T07:52:47.065Z,102251.66
2023-01-28T07:55:15.522Z,102262.50
2023-01-28T07:57:56.391Z,102262.84
2023-01-28T08:00:24.834Z,102264.59
2023-01-28T08:02:56.558Z,102283.09
2023-01-28T08:05:24.755Z,102275.28
2023-01-28T08:07:51.446Z,102280.09
2023-01-28T08:10:18.830Z,102280.84
2023-01-28T08:12:56.763Z,102298.00
2023-01-28T08:15:23.469Z,102303.41
2023-01-28T08:17:50.379Z,102300.25
2023-01-28T08:20:17.698Z,102304.28
2023-01-28T08:22:44.427Z,102305.44
2023-01-28T08:25:11.671Z,102304.53
2023-01-28T08:27:38.281Z,102304.03
2023-01-28T08:30:05.908Z,102312.13
2023-01-28T08:32:32.739Z,102315.94
2023-01-28T08:34:59.587Z,102320.75
2023-01-28T08:37:26.182Z,102325.81
2023-01-28T08:39:52.838Z,102331.13
2023-01-28T08:42:19.837Z,102339.56
2023-01-28T08:44:48.020Z,102335.69
2023-01-28T08:47:15.027Z,102344.78
2023-01-28T08:49:41.593Z,102346.91
2023-01-28T08:52:08.153Z,102354.41
2023-01-28T08:54:36.408Z,102354.00
2023-01-28T08:57:03.556Z,102356.41
2023-01-28T08:59:30.136Z,102357.28
2023-01-28T09:01:56.718Z,102364.16
2023-01-28T09:04:23.567Z,102370.81
2023-01-28T09:06:50.160Z,102381.69
2023-01-28T09:09:16.757Z,102379.84
2023-01-28T09:11:43.330Z,102376.94
2023-01-28T09:14:09.987Z,102375.09
2023-01-28T09:16:36.592Z,102388.03
2023-01-28T09:19:03.183Z,102398.28
2023-01-28T09:21:29.815Z,102391.38
2023-01-28T09:23:56.828Z,102401.41
2023-01-28T09:26:23.384Z,102396.75
2023-01-28T09:28:49.990Z,102405.97
2023-01-28T09:31:16.682Z,102393.97
2023-01-28T09:33:43.272Z,102391.88
2023-01-28T09:36:11.412Z,102391.06
2023-01-28T09:38:38.077Z,102386.19
2023-01-28T09:41:23.293Z,102397.59
2023-01-28T09:44:07.086Z,102406.03
2023-01-28T09:46:38.007Z,102404.84
2023-01-28T09:49:34.407Z,102404.56
2023-01-28T09:52:00.959Z,102407.66
2023-01-28T09:54:37.665Z,102430.75
2023-01-28T09:57:09.703Z,102422.38
2023-01-28T09:59:36.884Z,102410.00
2023-01-28T10:02:31.690Z,102402.88
2023-01-28T10:05:24.227Z,102412.56
2023-01-28T10:08:26.672Z,102403.28
2023-01-28T10:11:08.504Z,102395.47
2023-01-28T10:13:48.755Z,102390.53
2023-01-28T10:16:33.654Z,102405.19
2023-01-28T10:19:16.950Z,102403.28
2023-01-28T10:21:52.592Z,102393.56
2023-01-28T10:24:38.730Z,102384.09
2023-01-28T10:27:27.962Z,102392.47
2023-01-28T10:29:55.539Z,102393.34
2023-01-28T10:32:30.429Z,102389.13
2023-01-28T10:35:03.007Z,102383.09
2023-01-28T10:37:34.359Z,102384.28
2023-01-28T10:40:04.004Z,102395.53
2023-01-28T10:42:35.297Z,102400.50
2023-01-28T10:45:14.915Z,102411.69
2023-01-28T10:47:48.861Z,102409.25
2023-01-28T10:50:18.653Z,102406.25
2023-01-28T10:53:06.555Z,102406.88
2023-01-28T10:55:45.596Z,102411.59
2023-01-28T10:58:21.615Z,102411.31
2023-01-28T11:00:54.726Z,102405.47
2023-01-28T11:03:21.783Z,102406.94
2023-01-28T11:05:55.973Z,102414.75
2023-01-28T11:08:24.959Z,102419.53
2023-01-28T11:10:53.068Z,102413.03
2023-01-28T11:13:22.721Z,102422.31
2023-01-28T11:15:58.475Z,102413.84
2023-01-28T11:18:32.208Z,102404.31
2023-01-28T11:21:06.200Z,102387.59
2023-01-28T11:23:38.640Z,102385.47
2023-01-28T11:26:07.658Z,102386.66
2023-01-28T11:28:40.049Z,102393.25
2023-01-28T11:31:07.525Z,102395.84
2023-01-28T11:33:38.075Z,102392.03
2023-01-28T11:36:08.485Z,102393.97
2023-01-28T11:38:35.441Z,102377.81
2023-01-28T11:41:02.125Z,102374.25
2023-01-28T11:43:30.995Z,102382.50
2023-01-28T11:46:17.400Z,102368.69
2023-01-28T11:49:07.092Z,102360.47
2023-01-28T11:51:58.686Z,102360.06
2023-01-28T11:54:37.407Z,102360.06
2023-01-28T11:57:23.403Z,102363.28
2023-01-28T11:59:58.936Z,102357.38
2023-01-28T12:02:37.708Z,102340.66
2023-01-28T12:05:32.207Z,102337.50
2023-01-28T12:08:12.290Z,102347.19
2023-01-28T12:10:45.179Z,102343.19
2023-01-28T12:13:27.034Z,102332.34
2023-01-28T12:16:18.411Z,102333.72
2023-01-28T12:19:03.325Z,102330.38
2023-01-28T12:22:02.199Z,102310.81
2023-01-28T12:24:43.740Z,102304.88
2023-01-28T12:27:40.838Z,102266.88
2023-01-28T12:30:17.709Z,102256.88
2023-01-28T12:32:59.663Z,102252.34
2023-01-28T12:36:07.156Z,102239.69
2023-01-28T12:39:11.368Z,102232.84
2023-01-28T12:41:44.042Z,102227.09
2023-01-28T12:44:19.291Z,102232.81
2023-01-28T12:46:53.956Z,102223.13
2023-01-28T12:49:37.156Z,102226.94
2023-01-28T12:52:36.781Z,102244.63
2023-01-28T12:55:18.750Z,102259.81
2023-01-28T12:57:45.776Z,102254.13
2023-01-28T13:00:31.052Z,102251.47
2023-01-28T13:03:28.754Z,102234.81
2023-01-28T13:06:02.181Z,102219.06
2023-01-28T13:08:30.092Z,102212.22
2023-01-28T13:11:03.052Z,102222.72
2023-01-28T13:13:35.961Z,102226.63
2023-01-28T13:16:04.269Z,102241.56
2023-01-28T13:18:40.090Z,102229.75
2023-01-28T13:21:12.681Z,102245.09
2023-01-28T13:23:44.932Z,102261.75
2023-01-28T13:26:23.707Z,102274.59
2023-01-28T13:28:52.994Z,102280.78
2023-01-28T13:31:23.103Z,102291.19
2023-01-28T13:34:10.167Z,102284.56
2023-01-28T13:36:45.078Z,102279.47
2023-01-28T13:39:12.213Z,102291.09
2023-01-28T13:42:00.327Z,102294.97
2023-01-28T13:44:30.112Z,102289.97
2023-01-28T13:47:05.787Z,102306.94
2023-01-28T13:50:00.709Z,102293.88
2023-01-28T13:52:31.791Z,102298.81
2023-01-28T13:55:14.129Z,102303.69
2023-01-28T13:58:07.754Z,102291.34
2023-01-28T14:00:59.475Z,102264.19
2023-01-28T14:03:35.238Z,102254.81
2023-01-28T14:06:31.258Z,102260.16
2023-01-28T14:08:57.802Z,102250.53
2023-01-28T14:11:39.440Z,102237.69
2023-01-28T14:14:33.967Z,102216.00
2023-01-28T14:17:21.442Z,102213.84
2023-01-28T14:19:50.754Z,102203.44
2023-01-28T14:22:20.617Z,102194.03
2023-01-28T14:24:48.239Z,102190.28
2023-01-28T14:27:25.296Z,102191.47
2023-01-28T14:30:16.635Z,102222.44
2023-01-28T14:32:48.216Z,102227.78
2023-01-28T14:35:33.049Z,102229.81
2023-01-28T14:38:06.663Z,102243.09
2023-01-28T14:40:37.563Z,102251.59
2023-01-28T14:43:07.565Z,102253.69
2023-01-28T14:46:12.276Z,102248.03
2023-01-28T14:48:48.040Z,102254.19
2023-01-28T14:51:35.655Z,102249.66
2023-01-28T14:54:18.341Z,102271.09
2023-01-28T14:57:15.828Z,102261.53
2023-01-28T14:59:48.343Z,102272.00
2023-01-28T15:02:26.789Z,102266.69
2023-01-28T15:04:54.139Z,102255.41
2023-01-28T15:07:25.029Z,102261.53
2023-01-28T15:10:01.997Z,102272.97
2023-01-28T15:12:30.391Z,102265.63
2023-01-28T15:14:57.021Z,102256.09
2023-01-28T15:17:27.803Z,102250.28
2023-01-28T15:19:57.283Z,102269.59
2023-01-28T15:22:27.999Z,102259.41
2023-01-28T15:24:55.921Z,102269.31
2023-01-28T15:27:31.989Z,102278.53
2023-01-28T15:29:59.727Z,102283.81
2023-01-28T15:32:31.212Z,102276.09
2023-01-28T15:35:01.323Z,102287.41
2023-01-28T15:37:28.042Z,102285.94
2023-01-28T15:40:06.265Z,102280.56
2023-01-28T15:42:34.176Z,102285.25
2023-01-28T15:45:01.177Z,102283.03
2023-01-28T15:47:33.772Z,102284.38
2023-01-28T15:50:04.638Z,102283.34
2023-01-28T15:52:38.191Z,102289.28
2023-01-28T15:55:06.513Z,102292.19
2023-01-28T15:57:34.894Z,102307.59
2023-01-28T16:00:11.682Z,102309.16
2023-01-28T16:02:47.905Z,102310.69
2023-01-28T16:05:29.080Z,102315.94
2023-01-28T16:07:57.541Z,102314.63
2023-01-28T16:10:29.755Z,102311.59
2023-01-28T16:13:20.028Z,102315.63
2023-01-28T16:15:50.105Z,102318.53
2023-01-28T16:18:28.829Z,102332.38
2023-01-28T16:20:55.912Z,102332.72
2023-01-28T16:23:26.637Z,102338.81
2023-01-28T16:26:05.878Z,102344.84
2023-01-28T16:28:32.771Z,102342.50
2023-01-28T16:31:00.260Z,102336.34
2023-01-28T16:33:27.174Z,102325.19
2023-01-28T16:36:07.713Z,102323.09
2023-01-28T16:38:35.110Z,102326.88
2023-01-28T16:41:01.970Z,102315.16
2023-01-28T16:43:28.558Z,102305.91
2023-01-28T16:45:55.154Z,102300.44
2023-01-28T16:48:22.461Z,102293.28
2023-01-28T16:50:49.057Z,102281.56
2023-01-28T16:53:20.857Z,102279.91
2023-01-28T16:55:49.797Z,102285.13
2023-01-28T16:58:22.534Z,102291.44
2023-01-28T17:00:49.105Z,102280.50
2023-01-28T17:03:15.697Z,102284.00
2023-01-28T17:05:42.280Z,102293.19
2023-01-28T17:08:09.076Z,102284.63
2023-01-28T17:10:35.712Z,102275.03
2023-01-28T17:13:02.873Z,102293.78
2023-01-28T17:15:29.510Z,102292.13
2023-01-28T17:17:56.221Z,102302.66
2023-01-28T17:20:22.865Z,102312.63
2023-01-28T17:22:49.471Z,102316.94
2023-01-28T17:25:16.607Z,102315.81
2023-01-28T17:27:43.442Z,102321.06
2023-01-28T17:30:10.686Z,102326.38
2023-01-28T17:32:37.254Z,102329.47
2023-01-28T17:35:04.014Z,102327.03
2023-01-28T17:37:30.617Z,102325.38
2023-01-28T17:39:57.222Z,102331.31
2023-01-28T17:42:23.883Z,102326.34
2023-01-28T17:44:50.443Z,102312.31
2023-01-28T17:47:17.083Z,102317.31
2023-01-28T17:49:43.692Z,102321.59
2023-01-28T17:52:10.291Z,102314.25
2023-01-28T17:54:36.877Z,102310.09
2023-01-28T17:57:03.460Z,102318.00
2023-01-28T17:59:30.340Z,102335.47
2023-01-28T18:01:57.273Z,102333.91
2023-01-28T18:04:25.228Z,102331.22
2023-01-28T18:06:51.889Z,102331.69
2023-01-28T18:09:18.915Z,102342.50
2023-01-28T18:11:45.487Z,102344.03
2023-01-28T18:14:12.400Z,102336.72
2023-01-28T18:16:39.050Z,102342.00
2023-01-28T18:19:06.359Z,102349.59
2023-01-28T18:21:52.086Z,102354.22
2023-01-28T18:24:20.479Z,102350.31
2023-01-28T18:26:47.446Z,102353.78
2023-01-28T18:29:16.895Z,102346.41
2023-01-28T18:31:44.115Z,102361.47
2023-01-28T18:34:10.834Z,102368.28
2023-01-28T18:36:37.422Z,102371.25
2023-01-28T18:39:04.079Z,102381.28
2023-01-28T18:41:30.648Z,102382.19
2023-01-28T18:43:57.336Z,102391.16
2023-01-28T18:46:23.909Z,102388.97
2023-01-28T18:48:50.469Z,102383.09
2023-01-28T18:51:29.713Z,102385.28
2023-01-28T18:54:01.816Z,102372.22
2023-01-28T18:56:29.698Z,102371.84
2023-01-28T18:59:01.042Z,102379.53
2023-01-28T19:01:29.491Z,102373.91
2023-01-28T19:03:57.534Z,102381.56
2023-01-28T19:06:24.872Z,102384.66
2023-01-28T19:08:56.397Z,102379.03
2023-01-28T19:11:24.130Z,102392.72
2023-01-28T19:13:51.067Z,102388.88
2023-01-28T19:16:18.323Z,102386.56
2023-01-28T19:18:50.290Z,102403.59
2023-01-28T19:21:16.882Z,102404.75
2023-01-28T19:23:49.864Z,102404.88
2023-01-28T19:26:21.228Z,102405.13
2023-01-28T19:28:49.315Z,102411.66
2023-01-28T19:31:18.531Z,102407.16
2023-01-28T19:33:46.269Z,102409.09
2023-01-28T19:36:13.712Z,102412.94
2023-01-28T19:38:41.287Z,102408.44
2023-01-28T19:41:08.465Z,102409.47
2023-01-28T19:43:35.695Z,102406.41
2023-01-28T19:46:05.830Z,102404.88
2023-01-28T19:48:33.802Z,102404.88
2023-01-28T19:51:07.962Z,102406.69
2023-01-28T19:53:38.927Z,102402.31
2023-01-28T19:56:11.375Z,102390.81
2023-01-28T19:58:40.883Z,102396.81
2023-01-28T20:01:11.053Z,102396.81
2023-01-28T20:03:38.278Z,102384.03
2023-01-28T20:06:07.754Z,102375.09
2023-01-28T20:08:34.440Z,102384.69
2023-01-28T20:11:13.806Z,102388.53
2023-01-28T20:13:43.086Z,102372.53
2023-01-28T20:16:16.552Z,102373.69
2023-01-28T20:18:43.333Z,102366.03
2023-01-28T20:21:09.929Z,102367.78
2023-01-28T20:23:36.678Z,102369.59
2023-01-28T20:26:03.414Z,102372.16
2023-01-28T20:28:30.158Z,102361.28
2023-01-28T20:30:57.646Z,102361.16
2023-01-28T20:33:24.264Z,102346.09
2023-01-28T20:35:50.954Z,102342.50
2023-01-28T20:38:17.474Z,102349.41
2023-01-28T20:40:44.205Z,102349.41
2023-01-28T20:43:10.858Z,102343.91
2023-01-28T20:45:37.565Z,102349.16
2023-01-28T20:48:04.349Z,102340.72
2023-01-28T20:50:30.932Z,102339.41
2023-01-28T20:52:58.053Z,102339.06
2023-01-28T20:55:24.693Z,102334.19
2023-01-28T20:57:52.266Z,102342.78
2023-01-28T21:00:19.367Z,102341.75
2023-01-28T21:02:46.148Z,102349.50
2023-01-28T21:05:13.226Z,102345.28
2023-01-28T21:07:39.772Z,102350.91
2023-01-28T21:10:06.916Z,102347.59
2023-01-28T21:12:33.577Z,102346.59
2023-01-28T21:15:00.169Z,102347.22
2023-01-28T21:17:26.786Z,102358.06
2023-01-28T21:19:53.387Z,102357.25
2023-01-28T21:22:20.252Z,102361.22
2023-01-28T21:24:49.018Z,102362.34
2023-01-28T21:27:15.810Z,102360.47
2023-01-28T21:29:42.539Z,102356.78
2023-01-28T21:32:09.285Z,102352.94
2023-01-28T21:34:36.086Z,102356.25
2023-01-28T21:37:02.721Z,102358.44
2023-01-28T21:39:54.645Z,102357.16
2023-01-28T21:42:21.307Z,102358.84
2023-01-28T21:44:48.093Z,102359.44
2023-01-28T21:47:15.415Z,102358.28
2023-01-28T21:49:42.285Z,102358.41
2023-01-28T21:52:08.946Z,102361.66
2023-01-28T21:54:35.918Z,102355.50
2023-01-28T21:57:02.570Z,102361.13
2023-01-28T21:59:29.526Z,102362.69
2023-01-28T22:02:10.861Z,102356.53
2023-01-28T22:04:40.039Z,102355.38
2023-01-28T22:07:08.884Z,102365.50
2023-01-28T22:09:36.085Z,102364.63
2023-01-28T22:12:05.171Z,102353.63
2023-01-28T22:14:31.839Z,102356.06
2023-01-28T22:16:58.682Z,102347.97
2023-01-28T22:19:25.558Z,102354.75
2023-01-28T22:21:52.153Z,102347.50
2023-01-28T22:24:22.290Z,102341.84
2023-01-28T22:26:48.991Z,102339.06
2023-01-28T22:29:17.816Z,102347.09
2023-01-28T22:32:04.808Z,102343.50
2023-01-28T22:34:31.771Z,102341.22
2023-01-28T22:36:58.411Z,102343.50
2023-01-28T22:39:25.046Z,102347.09
2023-01-28T22:41:51.709Z,102343.50
2023-01-28T22:44:19.843Z,102332.38
2023-01-28T22:46:47.235Z,102331.13
2023-01-28T22:49:15.030Z,102339.19
2023-01-28T22:51:42.135Z,102332.28
2023-01-28T22:54:11.096Z,102333.81
2023-01-28T22:56:38.271Z,102334.44
2023-01-28T22:59:04.945Z,102331.00
2023-01-28T23:01:31.831Z,102327.28
2023-01-28T23:03:58.502Z,102328.03
2023-01-28T23:06:27.285Z,102330.22
2023-01-28T23:08:54.609Z,102334.56
2023-01-28T23:11:28.035Z,102331.97
2023-01-28T23:14:19.280Z,102341.97
2023-01-28T23:17:05.267Z,102329.19
2023-01-28T23:19:50.937Z,102335.34
2023-01-28T23:22:42.112Z,102325.25
2023-01-28T23:25:09.343Z,102332.28
2023-01-28T23:27:39.511Z,102333.53
2023-01-28T23:30:10.013Z,102325.63
2023-01-28T23:32:39.984Z,102328.06
2023-01-28T23:35:08.406Z,102321.03
2023-01-28T23:37:34.966Z,102316.53
2023-01-28T23:40:01.528Z,102321.78
2023-01-28T23:42:28.186Z,102323.06
2023-01-28T23:44:54.751Z,102322.41
2023-01-28T23:47:21.422Z,102314.09
2023-01-28T23:49:47.985Z,102311.41
2023-01-28T23:52:14.598Z,102308.88
2023-01-28T23:54:41.168Z,102307.22
2023-01-28T23:57:07.735Z,102299.78
2023-01-28T23:59:34.295Z,102302.88
